sensor_id;sensor_type;location;lat;lon;timestamp;temperature;humidity
7399;DHT22;3740;50.700;7.184;2022-11-12T00:00:32;8.90;99.90
7399;DHT22;3740;50.700;7.184;2022-11-12T00:02:58;9.00;99.90
7399;DHT22;3740;50.700;7.184;2022-11-12T00:05:24;9.00;99.90
7399;DHT22;3740;50.700;7.184;2022-11-12T00:07:50;9.00;99.90
7399;DHT22;3740;50.700;7.184;2022-11-12T00:10:16;8.90;99.90
7399;DHT22;3740;50.700;7.184;2022-11-12T00:12:44;8.80;99.90
7399;DHT22;3740;50.700;7.184;2022-11-12T00:15:10;8.90;99.90
7399;DHT22;3740;50.700;7.184;2022-11-12T00:17:38;9.00;99.90
7399;DHT22;3740;50.700;7.184;2022-11-12T00:20:06;9.00;99.90
7399;DHT22;3740;50.700;7.184;2022-11-12T00:22:34;9.00;99.90
7399;DHT22;3740;50.700;7.184;2022-11-12T00:25:01;8.70;99.90
7399;DHT22;3740;50.700;7.184;2022-11-12T00:27:27;8.60;99.90
7399;DHT22;3740;50.700;7.184;2022-11-12T00:29:53;8.70;99.90
7399;DHT22;3740;50.700;7.184;2022-11-12T00:32:18;8.80;99.90
7399;DHT22;3740;50.700;7.184;2022-11-12T00:34:44;8.90;99.90
7399;DHT22;3740;50.700;7.184;2022-11-12T00:37:10;8.80;99.90
7399;DHT22;3740;50.700;7.184;2022-11-12T00:39:36;8.70;99.90
7399;DHT22;3740;50.700;7.184;2022-11-12T00:42:01;8.70;99.90
7399;DHT22;3740;50.700;7.184;2022-11-12T00:44:28;8.80;99.90
7399;DHT22;3740;50.700;7.184;2022-11-12T00:46:55;8.80;99.90
7399;DHT22;3740;50.700;7.184;2022-11-12T00:49:21;8.90;99.90
7399;DHT22;3740;50.700;7.184;2022-11-12T00:51:47;8.90;99.90
7399;DHT22;3740;50.700;7.184;2022-11-12T00:54:13;8.80;99.90
7399;DHT22;3740;50.700;7.184;2022-11-12T00:56:38;8.80;99.90
7399;DHT22;3740;50.700;7.184;2022-11-12T00:59:04;8.80;99.90
7399;DHT22;3740;50.700;7.184;2022-11-12T01:01:30;8.90;99.90
7399;DHT22;3740;50.700;7.184;2022-11-12T01:03:57;8.90;99.90
7399;DHT22;3740;50.700;7.184;2022-11-12T01:06:23;8.80;99.90
7399;DHT22;3740;50.700;7.184;2022-11-12T01:08:50;8.70;99.90
7399;DHT22;3740;50.700;7.184;2022-11-12T01:11:25;8.70;99.90
7399;DHT22;3740;50.700;7.184;2022-11-12T01:14:00;8.70;99.90
7399;DHT22;3740;50.700;7.184;2022-11-12T01:16:33;8.80;99.90
7399;DHT22;3740;50.700;7.184;2022-11-12T01:19:00;8.70;99.90
7399;DHT22;3740;50.700;7.184;2022-11-12T01:21:28;8.70;99.90
7399;DHT22;3740;50.700;7.184;2022-11-12T01:23:59;8.80;99.90
7399;DHT22;3740;50.700;7.184;2022-11-12T01:26:27;8.80;99.90
7399;DHT22;3740;50.700;7.184;2022-11-12T01:28:53;8.70;99.90
7399;DHT22;3740;50.700;7.184;2022-11-12T01:31:29;8.70;99.90
7399;DHT22;3740;50.700;7.184;2022-11-12T01:33:57;8.60;99.90
7399;DHT22;3740;50.700;7.184;2022-11-12T01:36:25;8.60;99.90
7399;DHT22;3740;50.700;7.184;2022-11-12T01:38:53;8.60;99.90
7399;DHT22;3740;50.700;7.184;2022-11-12T01:41:25;8.60;99.90
7399;DHT22;3740;50.700;7.184;2022-11-12T01:44:09;8.60;99.90
7399;DHT22;3740;50.700;7.184;2022-11-12T01:49:14;8.50;99.90
7399;DHT22;3740;50.700;7.184;2022-11-12T01:51:46;8.60;99.90
7399;DHT22;3740;50.700;7.184;2022-11-12T01:54:14;8.60;99.90
7399;DHT22;3740;50.700;7.184;2022-11-12T01:56:41;8.60;99.90
7399;DHT22;3740;50.700;7.184;2022-11-12T01:59:12;8.60;99.90
7399;DHT22;3740;50.700;7.184;2022-11-12T02:01:38;8.50;99.90
7399;DHT22;3740;50.700;7.184;2022-11-12T02:04:04;8.40;99.90
7399;DHT22;3740;50.700;7.184;2022-11-12T02:06:30;8.40;99.90
7399;DHT22;3740;50.700;7.184;2022-11-12T02:08:57;8.30;99.90
7399;DHT22;3740;50.700;7.184;2022-11-12T02:11:23;8.30;99.90
7399;DHT22;3740;50.700;7.184;2022-11-12T02:13:50;8.40;99.90
7399;DHT22;3740;50.700;7.184;2022-11-12T02:16:37;8.30;99.90
7399;DHT22;3740;50.700;7.184;2022-11-12T02:19:05;8.50;99.90
7399;DHT22;3740;50.700;7.184;2022-11-12T02:21:32;8.60;99.90
7399;DHT22;3740;50.700;7.184;2022-11-12T02:24:02;8.70;99.90
7399;DHT22;3740;50.700;7.184;2022-11-12T02:26:32;8.70;99.90
7399;DHT22;3740;50.700;7.184;2022-11-12T02:28:59;8.70;99.90
7399;DHT22;3740;50.700;7.184;2022-11-12T02:31:24;8.70;99.90
7399;DHT22;3740;50.700;7.184;2022-11-12T02:33:50;8.80;99.90
7399;DHT22;3740;50.700;7.184;2022-11-12T02:36:16;8.80;99.90
7399;DHT22;3740;50.700;7.184;2022-11-12T02:38:41;8.90;99.90
7399;DHT22;3740;50.700;7.184;2022-11-12T02:41:07;8.80;99.90
7399;DHT22;3740;50.700;7.184;2022-11-12T02:43:33;8.70;99.90
7399;DHT22;3740;50.700;7.184;2022-11-12T02:45:59;8.70;99.90
7399;DHT22;3740;50.700;7.184;2022-11-12T02:48:25;8.70;99.90
7399;DHT22;3740;50.700;7.184;2022-11-12T02:50:50;8.70;99.90
7399;DHT22;3740;50.700;7.184;2022-11-12T02:53:16;8.70;99.90
7399;DHT22;3740;50.700;7.184;2022-11-12T02:55:42;8.60;99.90
7399;DHT22;3740;50.700;7.184;2022-11-12T02:58:07;8.50;99.90
7399;DHT22;3740;50.700;7.184;2022-11-12T03:00:33;8.50;99.90
7399;DHT22;3740;50.700;7.184;2022-11-12T03:02:59;8.50;99.90
7399;DHT22;3740;50.700;7.184;2022-11-12T03:05:25;8.50;99.90
7399;DHT22;3740;50.700;7.184;2022-11-12T03:08:03;8.50;99.90
7399;DHT22;3740;50.700;7.184;2022-11-12T03:10:29;8.30;99.90
7399;DHT22;3740;50.700;7.184;2022-11-12T03:12:56;8.30;99.90
7399;DHT22;3740;50.700;7.184;2022-11-12T03:15:22;8.30;99.90
7399;DHT22;3740;50.700;7.184;2022-11-12T03:17:48;8.30;99.90
7399;DHT22;3740;50.700;7.184;2022-11-12T03:20:14;8.30;99.90
7399;DHT22;3740;50.700;7.184;2022-11-12T03:22:40;8.20;99.90
7399;DHT22;3740;50.700;7.184;2022-11-12T03:25:08;8.10;99.90
7399;DHT22;3740;50.700;7.184;2022-11-12T03:27:34;8.10;99.90
7399;DHT22;3740;50.700;7.184;2022-11-12T03:30:00;8.20;99.90
7399;DHT22;3740;50.700;7.184;2022-11-12T03:32:26;8.30;99.90
7399;DHT22;3740;50.700;7.184;2022-11-12T03:34:51;8.40;99.90
7399;DHT22;3740;50.700;7.184;2022-11-12T03:37:17;8.40;99.90
7399;DHT22;3740;50.700;7.184;2022-11-12T03:39:42;8.40;99.90
7399;DHT22;3740;50.700;7.184;2022-11-12T03:42:08;8.20;99.90
7399;DHT22;3740;50.700;7.184;2022-11-12T03:44:34;8.10;99.90
7399;DHT22;3740;50.700;7.184;2022-11-12T03:46:59;8.10;99.90
7399;DHT22;3740;50.700;7.184;2022-11-12T03:49:26;8.20;99.90
7399;DHT22;3740;50.700;7.184;2022-11-12T03:51:52;8.30;99.90
7399;DHT22;3740;50.700;7.184;2022-11-12T03:54:18;8.30;99.90
7399;DHT22;3740;50.700;7.184;2022-11-12T03:56:44;8.10;99.90
7399;DHT22;3740;50.700;7.184;2022-11-12T03:59:10;8.00;99.90
7399;DHT22;3740;50.700;7.184;2022-11-12T04:01:36;8.10;99.90
7399;DHT22;3740;50.700;7.184;2022-11-12T04:04:02;8.20;99.90
7399;DHT22;3740;50.700;7.184;2022-11-12T04:06:28;8.30;99.90
7399;DHT22;3740;50.700;7.184;2022-11-12T04:09:12;8.20;99.90
7399;DHT22;3740;50.700;7.184;2022-11-12T04:11:38;8.00;99.90
7399;DHT22;3740;50.700;7.184;2022-11-12T04:14:04;7.60;99.90
7399;DHT22;3740;50.700;7.184;2022-11-12T04:16:30;7.70;99.90
7399;DHT22;3740;50.700;7.184;2022-11-12T04:19:15;7.80;99.90
7399;DHT22;3740;50.700;7.184;2022-11-12T04:22:04;7.90;99.90
7399;DHT22;3740;50.700;7.184;2022-11-12T04:24:38;8.00;99.90
7399;DHT22;3740;50.700;7.184;2022-11-12T04:27:24;7.90;99.90
7399;DHT22;3740;50.700;7.184;2022-11-12T04:29:51;7.70;99.90
7399;DHT22;3740;50.700;7.184;2022-11-12T04:32:39;7.60;99.90
7399;DHT22;3740;50.700;7.184;2022-11-12T04:35:07;7.80;99.90
7399;DHT22;3740;50.700;7.184;2022-11-12T04:37:34;7.80;99.90
7399;DHT22;3740;50.700;7.184;2022-11-12T04:40:23;7.90;99.90
7399;DHT22;3740;50.700;7.184;2022-11-12T04:43:13;7.80;99.90
7399;DHT22;3740;50.700;7.184;2022-11-12T04:45:59;7.50;99.90
7399;DHT22;3740;50.700;7.184;2022-11-12T04:48:28;7.70;99.90
7399;DHT22;3740;50.700;7.184;2022-11-12T04:50:58;7.80;99.90
7399;DHT22;3740;50.700;7.184;2022-11-12T04:53:25;7.80;99.90
7399;DHT22;3740;50.700;7.184;2022-11-12T04:55:51;7.80;99.90
7399;DHT22;3740;50.700;7.184;2022-11-12T04:58:18;7.70;99.90
7399;DHT22;3740;50.700;7.184;2022-11-12T05:00:43;7.60;99.90
7399;DHT22;3740;50.700;7.184;2022-11-12T05:03:09;7.60;99.90
7399;DHT22;3740;50.700;7.184;2022-11-12T05:05:35;7.70;99.90
7399;DHT22;3740;50.700;7.184;2022-11-12T05:08:01;7.80;99.90
7399;DHT22;3740;50.700;7.184;2022-11-12T05:10:27;7.90;99.90
7399;DHT22;3740;50.700;7.184;2022-11-12T05:12:53;7.80;99.90
7399;DHT22;3740;50.700;7.184;2022-11-12T05:15:20;7.50;99.90
7399;DHT22;3740;50.700;7.184;2022-11-12T05:17:45;7.50;99.90
7399;DHT22;3740;50.700;7.184;2022-11-12T05:20:12;7.50;99.90
7399;DHT22;3740;50.700;7.184;2022-11-12T05:22:38;7.60;99.90
7399;DHT22;3740;50.700;7.184;2022-11-12T05:25:05;7.60;99.90
7399;DHT22;3740;50.700;7.184;2022-11-12T05:27:32;7.60;99.90
7399;DHT22;3740;50.700;7.184;2022-11-12T05:29:57;7.50;99.90
7399;DHT22;3740;50.700;7.184;2022-11-12T05:32:23;7.30;99.90
7399;DHT22;3740;50.700;7.184;2022-11-12T05:34:49;7.40;99.90
7399;DHT22;3740;50.700;7.184;2022-11-12T05:37:15;7.40;99.90
7399;DHT22;3740;50.700;7.184;2022-11-12T05:39:41;7.50;99.90
7399;DHT22;3740;50.700;7.184;2022-11-12T05:42:07;7.50;99.90
7399;DHT22;3740;50.700;7.184;2022-11-12T05:44:32;7.40;99.90
7399;DHT22;3740;50.700;7.184;2022-11-12T05:46:58;7.20;99.90
7399;DHT22;3740;50.700;7.184;2022-11-12T05:49:24;7.30;99.90
7399;DHT22;3740;50.700;7.184;2022-11-12T05:51:49;7.40;99.90
7399;DHT22;3740;50.700;7.184;2022-11-12T05:54:15;7.40;99.90
7399;DHT22;3740;50.700;7.184;2022-11-12T05:56:41;7.40;99.90
7399;DHT22;3740;50.700;7.184;2022-11-12T05:59:10;7.30;99.90
7399;DHT22;3740;50.700;7.184;2022-11-12T06:01:36;7.20;99.90
7399;DHT22;3740;50.700;7.184;2022-11-12T06:04:09;7.10;99.90
7399;DHT22;3740;50.700;7.184;2022-11-12T06:06:35;7.10;99.90
7399;DHT22;3740;50.700;7.184;2022-11-12T06:09:02;7.20;99.90
7399;DHT22;3740;50.700;7.184;2022-11-12T06:11:27;7.30;99.90
7399;DHT22;3740;50.700;7.184;2022-11-12T06:13:54;7.40;99.90
7399;DHT22;3740;50.700;7.184;2022-11-12T06:16:19;7.20;99.90
7399;DHT22;3740;50.700;7.184;2022-11-12T06:18:45;7.00;99.90
7399;DHT22;3740;50.700;7.184;2022-11-12T06:21:11;7.00;99.90
7399;DHT22;3740;50.700;7.184;2022-11-12T06:23:52;7.10;99.90
7399;DHT22;3740;50.700;7.184;2022-11-12T06:26:18;7.20;99.90
7399;DHT22;3740;50.700;7.184;2022-11-12T06:28:45;7.30;99.90
7399;DHT22;3740;50.700;7.184;2022-11-12T06:31:11;7.30;99.90
7399;DHT22;3740;50.700;7.184;2022-11-12T06:33:36;7.30;99.90
7399;DHT22;3740;50.700;7.184;2022-11-12T06:36:03;7.30;99.90
7399;DHT22;3740;50.700;7.184;2022-11-12T06:38:31;7.40;99.90
7399;DHT22;3740;50.700;7.184;2022-11-12T06:40:57;7.50;99.90
7399;DHT22;3740;50.700;7.184;2022-11-12T06:43:24;7.50;99.90
7399;DHT22;3740;50.700;7.184;2022-11-12T06:45:51;7.50;99.90
7399;DHT22;3740;50.700;7.184;2022-11-12T06:48:17;7.50;99.90
7399;DHT22;3740;50.700;7.184;2022-11-12T06:50:42;7.50;99.90
7399;DHT22;3740;50.700;7.184;2022-11-12T06:53:08;7.40;99.90
7399;DHT22;3740;50.700;7.184;2022-11-12T06:55:34;7.20;99.90
7399;DHT22;3740;50.700;7.184;2022-11-12T06:58:01;7.00;99.90
7399;DHT22;3740;50.700;7.184;2022-11-12T07:00:26;7.10;99.90
7399;DHT22;3740;50.700;7.184;2022-11-12T07:02:52;7.20;99.90
7399;DHT22;3740;50.700;7.184;2022-11-12T07:05:18;7.30;99.90
7399;DHT22;3740;50.700;7.184;2022-11-12T07:07:44;7.40;99.90
7399;DHT22;3740;50.700;7.184;2022-11-12T07:10:10;7.50;99.90
7399;DHT22;3740;50.700;7.184;2022-11-12T07:12:37;7.50;99.90
7399;DHT22;3740;50.700;7.184;2022-11-12T07:15:03;7.50;99.90
7399;DHT22;3740;50.700;7.184;2022-11-12T07:17:30;7.50;99.90
7399;DHT22;3740;50.700;7.184;2022-11-12T07:19:55;7.60;99.90
7399;DHT22;3740;50.700;7.184;2022-11-12T07:22:21;7.70;99.90
7399;DHT22;3740;50.700;7.184;2022-11-12T07:24:46;7.80;99.90
7399;DHT22;3740;50.700;7.184;2022-11-12T07:27:12;7.80;99.90
7399;DHT22;3740;50.700;7.184;2022-11-12T07:29:37;7.70;99.90
7399;DHT22;3740;50.700;7.184;2022-11-12T07:32:03;7.60;99.90
7399;DHT22;3740;50.700;7.184;2022-11-12T07:34:29;7.70;99.90
7399;DHT22;3740;50.700;7.184;2022-11-12T07:36:54;7.80;99.90
7399;DHT22;3740;50.700;7.184;2022-11-12T07:39:21;7.90;99.90
7399;DHT22;3740;50.700;7.184;2022-11-12T07:41:46;7.90;99.90
7399;DHT22;3740;50.700;7.184;2022-11-12T07:44:12;7.90;99.90
7399;DHT22;3740;50.700;7.184;2022-11-12T07:46:37;7.60;99.90
7399;DHT22;3740;50.700;7.184;2022-11-12T07:49:03;7.80;99.90
7399;DHT22;3740;50.700;7.184;2022-11-12T07:51:29;7.90;99.90
7399;DHT22;3740;50.700;7.184;2022-11-12T07:53:56;8.10;99.90
7399;DHT22;3740;50.700;7.184;2022-11-12T07:56:24;8.20;99.90
7399;DHT22;3740;50.700;7.184;2022-11-12T07:58:50;8.20;99.90
7399;DHT22;3740;50.700;7.184;2022-11-12T08:01:30;8.10;99.90
7399;DHT22;3740;50.700;7.184;2022-11-12T08:03:57;8.10;99.90
7399;DHT22;3740;50.700;7.184;2022-11-12T08:06:23;8.20;99.90
7399;DHT22;3740;50.700;7.184;2022-11-12T08:08:52;8.30;99.90
7399;DHT22;3740;50.700;7.184;2022-11-12T08:11:18;8.40;99.90
7399;DHT22;3740;50.700;7.184;2022-11-12T08:13:44;8.30;99.90
7399;DHT22;3740;50.700;7.184;2022-11-12T08:16:10;8.20;99.90
7399;DHT22;3740;50.700;7.184;2022-11-12T08:18:36;8.10;99.90
7399;DHT22;3740;50.700;7.184;2022-11-12T08:21:04;8.20;99.90
7399;DHT22;3740;50.700;7.184;2022-11-12T08:23:30;8.30;99.90
7399;DHT22;3740;50.700;7.184;2022-11-12T08:26:00;8.20;99.90
7399;DHT22;3740;50.700;7.184;2022-11-12T08:28:28;8.10;99.90
7399;DHT22;3740;50.700;7.184;2022-11-12T08:30:54;8.00;99.90
7399;DHT22;3740;50.700;7.184;2022-11-12T08:33:21;8.10;99.90
7399;DHT22;3740;50.700;7.184;2022-11-12T08:35:47;8.10;99.90
7399;DHT22;3740;50.700;7.184;2022-11-12T08:38:12;8.10;99.90
7399;DHT22;3740;50.700;7.184;2022-11-12T08:40:39;8.30;99.90
7399;DHT22;3740;50.700;7.184;2022-11-12T08:43:06;8.20;99.90
7399;DHT22;3740;50.700;7.184;2022-11-12T08:45:34;8.10;99.90
7399;DHT22;3740;50.700;7.184;2022-11-12T08:48:02;8.20;99.90
7399;DHT22;3740;50.700;7.184;2022-11-12T08:50:29;8.20;99.90
7399;DHT22;3740;50.700;7.184;2022-11-12T08:53:03;8.30;99.90
7399;DHT22;3740;50.700;7.184;2022-11-12T08:55:29;8.30;99.90
7399;DHT22;3740;50.700;7.184;2022-11-12T08:57:55;8.40;99.90
7399;DHT22;3740;50.700;7.184;2022-11-12T09:00:23;8.50;99.90
7399;DHT22;3740;50.700;7.184;2022-11-12T09:02:49;8.50;99.90
7399;DHT22;3740;50.700;7.184;2022-11-12T09:05:15;8.50;99.90
7399;DHT22;3740;50.700;7.184;2022-11-12T09:07:41;8.50;99.90
7399;DHT22;3740;50.700;7.184;2022-11-12T09:10:08;8.50;99.90
7399;DHT22;3740;50.700;7.184;2022-11-12T09:12:33;8.70;99.90
7399;DHT22;3740;50.700;7.184;2022-11-12T09:14:59;8.70;99.90
7399;DHT22;3740;50.700;7.184;2022-11-12T09:17:25;8.70;99.90
7399;DHT22;3740;50.700;7.184;2022-11-12T09:19:50;8.70;99.90
7399;DHT22;3740;50.700;7.184;2022-11-12T09:22:16;8.80;99.90
7399;DHT22;3740;50.700;7.184;2022-11-12T09:24:42;8.80;99.90
7399;DHT22;3740;50.700;7.184;2022-11-12T09:27:07;8.90;99.90
7399;DHT22;3740;50.700;7.184;2022-11-12T09:29:33;8.90;99.90
7399;DHT22;3740;50.700;7.184;2022-11-12T09:31:58;9.20;99.90
7399;DHT22;3740;50.700;7.184;2022-11-12T09:34:24;9.30;99.90
7399;DHT22;3740;50.700;7.184;2022-11-12T09:36:50;9.40;99.90
7399;DHT22;3740;50.700;7.184;2022-11-12T09:39:15;9.50;99.90
7399;DHT22;3740;50.700;7.184;2022-11-12T09:41:41;9.80;99.90
7399;DHT22;3740;50.700;7.184;2022-11-12T09:44:14;10.50;99.90
7399;DHT22;3740;50.700;7.184;2022-11-12T09:46:47;11.80;99.90
7399;DHT22;3740;50.700;7.184;2022-11-12T09:49:22;13.20;99.90
7399;DHT22;3740;50.700;7.184;2022-11-12T09:51:55;14.40;99.90
7399;DHT22;3740;50.700;7.184;2022-11-12T09:54:24;15.30;99.90
7399;DHT22;3740;50.700;7.184;2022-11-12T09:56:51;16.10;99.90
7399;DHT22;3740;50.700;7.184;2022-11-12T09:59:17;16.80;99.90
7399;DHT22;3740;50.700;7.184;2022-11-12T10:09:58;18.20;99.90
7399;DHT22;3740;50.700;7.184;2022-11-12T10:13:06;18.00;99.90
7399;DHT22;3740;50.700;7.184;2022-11-12T10:19:03;17.90;99.90
7399;DHT22;3740;50.700;7.184;2022-11-12T10:24:11;18.60;99.70
7399;DHT22;3740;50.700;7.184;2022-11-12T10:26:38;18.40;99.50
7399;DHT22;3740;50.700;7.184;2022-11-12T10:29:28;18.30;99.90
7399;DHT22;3740;50.700;7.184;2022-11-12T10:31:55;17.50;99.90
7399;DHT22;3740;50.700;7.184;2022-11-12T10:34:23;17.20;99.90
7399;DHT22;3740;50.700;7.184;2022-11-12T10:36:54;16.80;99.90
7399;DHT22;3740;50.700;7.184;2022-11-12T10:39:40;16.90;99.90
7399;DHT22;3740;50.700;7.184;2022-11-12T10:42:18;17.20;99.90
7399;DHT22;3740;50.700;7.184;2022-11-12T10:44:45;17.20;99.90
7399;DHT22;3740;50.700;7.184;2022-11-12T10:47:29;17.30;99.90
7399;DHT22;3740;50.700;7.184;2022-11-12T10:52:33;17.50;99.90
7399;DHT22;3740;50.700;7.184;2022-11-12T10:55:11;17.60;99.90
7399;DHT22;3740;50.700;7.184;2022-11-12T10:57:39;17.50;99.90
7399;DHT22;3740;50.700;7.184;2022-11-12T11:00:17;17.40;99.90
7399;DHT22;3740;50.700;7.184;2022-11-12T11:02:50;17.40;99.90
7399;DHT22;3740;50.700;7.184;2022-11-12T11:05:36;17.60;99.90
7399;DHT22;3740;50.700;7.184;2022-11-12T11:08:04;17.50;99.90
7399;DHT22;3740;50.700;7.184;2022-11-12T11:10:33;17.30;99.90
7399;DHT22;3740;50.700;7.184;2022-11-12T11:18:22;17.90;99.90
7399;DHT22;3740;50.700;7.184;2022-11-12T11:23:35;18.30;99.90
7399;DHT22;3740;50.700;7.184;2022-11-12T11:28:59;18.40;99.90
7399;DHT22;3740;50.700;7.184;2022-11-12T11:32:06;18.40;99.90
7399;DHT22;3740;50.700;7.184;2022-11-12T11:35:04;18.30;99.90
7399;DHT22;3740;50.700;7.184;2022-11-12T11:37:52;18.60;99.90
7399;DHT22;3740;50.700;7.184;2022-11-12T11:40:28;18.50;99.90
7399;DHT22;3740;50.700;7.184;2022-11-12T11:43:25;18.70;99.90
7399;DHT22;3740;50.700;7.184;2022-11-12T11:46:08;18.60;99.90
7399;DHT22;3740;50.700;7.184;2022-11-12T11:57:01;18.00;99.90
7399;DHT22;3740;50.700;7.184;2022-11-12T11:59:38;17.80;99.90
7399;DHT22;3740;50.700;7.184;2022-11-12T12:02:31;17.60;99.90
7399;DHT22;3740;50.700;7.184;2022-11-12T12:08:17;17.70;99.90
7399;DHT22;3740;50.700;7.184;2022-11-12T12:11:09;17.70;99.90
7399;DHT22;3740;50.700;7.184;2022-11-12T12:13:49;17.40;99.90
7399;DHT22;3740;50.700;7.184;2022-11-12T12:16:27;17.40;99.90
7399;DHT22;3740;50.700;7.184;2022-11-12T12:21:35;17.20;99.90
7399;DHT22;3740;50.700;7.184;2022-11-12T12:26:50;16.60;99.90
7399;DHT22;3740;50.700;7.184;2022-11-12T12:34:47;16.10;99.90
7399;DHT22;3740;50.700;7.184;2022-11-12T12:37:31;16.00;99.90
7399;DHT22;3740;50.700;7.184;2022-11-12T12:40:17;16.00;99.90
7399;DHT22;3740;50.700;7.184;2022-11-12T12:43:03;16.00;99.90
7399;DHT22;3740;50.700;7.184;2022-11-12T12:48:00;15.70;99.90
7399;DHT22;3740;50.700;7.184;2022-11-12T12:50:29;15.80;99.90
7399;DHT22;3740;50.700;7.184;2022-11-12T12:55:38;15.90;99.90
7399;DHT22;3740;50.700;7.184;2022-11-12T12:58:15;16.00;99.90
7399;DHT22;3740;50.700;7.184;2022-11-12T13:00:49;16.30;99.90
7399;DHT22;3740;50.700;7.184;2022-11-12T13:17:02;16.40;99.90
7399;DHT22;3740;50.700;7.184;2022-11-12T13:19:35;16.40;99.90
7399;DHT22;3740;50.700;7.184;2022-11-12T13:40:42;16.00;99.90
7399;DHT22;3740;50.700;7.184;2022-11-12T13:51:33;15.80;99.90
7399;DHT22;3740;50.700;7.184;2022-11-12T13:54:00;15.70;99.90
7399;DHT22;3740;50.700;7.184;2022-11-12T13:56:32;15.70;99.90
7399;DHT22;3740;50.700;7.184;2022-11-12T13:59:18;15.70;99.90
7399;DHT22;3740;50.700;7.184;2022-11-12T14:01:44;15.60;99.90
7399;DHT22;3740;50.700;7.184;2022-11-12T14:04:17;15.60;99.90
7399;DHT22;3740;50.700;7.184;2022-11-12T14:06:45;15.60;99.90
7399;DHT22;3740;50.700;7.184;2022-11-12T14:12:28;15.40;99.90
7399;DHT22;3740;50.700;7.184;2022-11-12T14:15:12;15.30;99.90
7399;DHT22;3740;50.700;7.184;2022-11-12T14:20:40;15.00;99.90
7399;DHT22;3740;50.700;7.184;2022-11-12T14:23:12;15.00;99.90
7399;DHT22;3740;50.700;7.184;2022-11-12T14:25:49;14.80;99.90
7399;DHT22;3740;50.700;7.184;2022-11-12T14:28:29;14.70;99.90
7399;DHT22;3740;50.700;7.184;2022-11-12T14:30:56;14.50;99.90
7399;DHT22;3740;50.700;7.184;2022-11-12T14:33:24;14.40;99.90
7399;DHT22;3740;50.700;7.184;2022-11-12T14:36:11;14.40;99.90
7399;DHT22;3740;50.700;7.184;2022-11-12T14:38:47;14.50;99.90
7399;DHT22;3740;50.700;7.184;2022-11-12T14:41:18;14.50;99.90
7399;DHT22;3740;50.700;7.184;2022-11-12T14:43:47;14.50;99.90
7399;DHT22;3740;50.700;7.184;2022-11-12T14:49:02;14.50;99.90
7399;DHT22;3740;50.700;7.184;2022-11-12T14:51:31;14.50;99.90
7399;DHT22;3740;50.700;7.184;2022-11-12T14:54:03;14.50;99.90
7399;DHT22;3740;50.700;7.184;2022-11-12T14:56:33;14.50;99.90
7399;DHT22;3740;50.700;7.184;2022-11-12T14:59:00;14.40;99.90
7399;DHT22;3740;50.700;7.184;2022-11-12T15:01:29;14.30;99.90
7399;DHT22;3740;50.700;7.184;2022-11-12T15:06:34;14.20;99.90
7399;DHT22;3740;50.700;7.184;2022-11-12T15:09:00;14.20;99.90
7399;DHT22;3740;50.700;7.184;2022-11-12T15:11:34;14.10;99.90
7399;DHT22;3740;50.700;7.184;2022-11-12T15:14:02;14.90;99.90
7399;DHT22;3740;50.700;7.184;2022-11-12T15:16:33;13.80;99.90
7399;DHT22;3740;50.700;7.184;2022-11-12T15:19:20;13.80;99.90
7399;DHT22;3740;50.700;7.184;2022-11-12T15:21:53;13.70;99.90
7399;DHT22;3740;50.700;7.184;2022-11-12T15:24:30;13.60;99.90
7399;DHT22;3740;50.700;7.184;2022-11-12T15:26:59;13.60;99.90
7399;DHT22;3740;50.700;7.184;2022-11-12T15:29:31;13.60;99.90
7399;DHT22;3740;50.700;7.184;2022-11-12T15:34:46;13.60;99.90
7399;DHT22;3740;50.700;7.184;2022-11-12T15:37:23;13.50;99.90
7399;DHT22;3740;50.700;7.184;2022-11-12T15:40:02;13.50;99.90
7399;DHT22;3740;50.700;7.184;2022-11-12T15:42:36;13.50;99.90
7399;DHT22;3740;50.700;7.184;2022-11-12T15:45:12;13.40;99.90
7399;DHT22;3740;50.700;7.184;2022-11-12T15:47:39;13.40;99.90
7399;DHT22;3740;50.700;7.184;2022-11-12T15:50:16;13.40;99.90
7399;DHT22;3740;50.700;7.184;2022-11-12T15:52:43;13.20;99.90
7399;DHT22;3740;50.700;7.184;2022-11-12T15:55:10;13.20;99.90
7399;DHT22;3740;50.700;7.184;2022-11-12T15:57:46;13.30;99.90
7399;DHT22;3740;50.700;7.184;2022-11-12T16:00:16;13.20;99.90
7399;DHT22;3740;50.700;7.184;2022-11-12T16:02:43;13.20;99.90
7399;DHT22;3740;50.700;7.184;2022-11-12T16:05:14;13.10;99.90
7399;DHT22;3740;50.700;7.184;2022-11-12T16:07:41;13.00;99.90
7399;DHT22;3740;50.700;7.184;2022-11-12T16:10:12;13.10;99.90
7399;DHT22;3740;50.700;7.184;2022-11-12T16:12:39;13.10;99.90
7399;DHT22;3740;50.700;7.184;2022-11-12T16:17:39;13.00;99.90
7399;DHT22;3740;50.700;7.184;2022-11-12T16:22:38;12.80;99.90
7399;DHT22;3740;50.700;7.184;2022-11-12T16:25:04;12.90;99.90
7399;DHT22;3740;50.700;7.184;2022-11-12T16:27:30;12.80;99.90
7399;DHT22;3740;50.700;7.184;2022-11-12T16:29:56;12.70;99.90
7399;DHT22;3740;50.700;7.184;2022-11-12T16:32:22;12.70;99.90
7399;DHT22;3740;50.700;7.184;2022-11-12T16:34:47;12.70;99.90
7399;DHT22;3740;50.700;7.184;2022-11-12T16:37:14;12.70;99.90
7399;DHT22;3740;50.700;7.184;2022-11-12T16:39:40;12.70;99.90
7399;DHT22;3740;50.700;7.184;2022-11-12T16:42:10;12.60;99.90
7399;DHT22;3740;50.700;7.184;2022-11-12T16:44:35;12.50;99.90
7399;DHT22;3740;50.700;7.184;2022-11-12T16:47:02;12.50;99.90
7399;DHT22;3740;50.700;7.184;2022-11-12T16:49:28;12.50;99.90
7399;DHT22;3740;50.700;7.184;2022-11-12T16:51:53;12.40;99.90
7399;DHT22;3740;50.700;7.184;2022-11-12T16:54:19;12.40;99.90
7399;DHT22;3740;50.700;7.184;2022-11-12T16:56:45;12.30;99.90
7399;DHT22;3740;50.700;7.184;2022-11-12T16:59:11;12.10;99.90
7399;DHT22;3740;50.700;7.184;2022-11-12T17:01:40;12.00;99.90
7399;DHT22;3740;50.700;7.184;2022-11-12T17:04:05;12.00;99.90
7399;DHT22;3740;50.700;7.184;2022-11-12T17:06:40;12.10;99.90
7399;DHT22;3740;50.700;7.184;2022-11-12T17:09:07;12.20;99.90
7399;DHT22;3740;50.700;7.184;2022-11-12T17:11:34;12.20;99.90
7399;DHT22;3740;50.700;7.184;2022-11-12T17:14:01;12.20;99.90
7399;DHT22;3740;50.700;7.184;2022-11-12T17:16:27;12.10;99.90
7399;DHT22;3740;50.700;7.184;2022-11-12T17:19:00;12.20;99.90
7399;DHT22;3740;50.700;7.184;2022-11-12T17:21:27;12.00;99.90
7399;DHT22;3740;50.700;7.184;2022-11-12T17:23:54;12.00;99.90
7399;DHT22;3740;50.700;7.184;2022-11-12T17:26:20;12.10;99.90
7399;DHT22;3740;50.700;7.184;2022-11-12T17:28:47;12.20;99.90
7399;DHT22;3740;50.700;7.184;2022-11-12T17:31:18;12.20;99.90
7399;DHT22;3740;50.700;7.184;2022-11-12T17:33:46;12.20;99.90
7399;DHT22;3740;50.700;7.184;2022-11-12T17:36:15;12.00;99.90
7399;DHT22;3740;50.700;7.184;2022-11-12T17:38:42;11.90;99.90
7399;DHT22;3740;50.700;7.184;2022-11-12T17:41:08;12.00;99.90
7399;DHT22;3740;50.700;7.184;2022-11-12T17:43:35;12.00;99.90
7399;DHT22;3740;50.700;7.184;2022-11-12T17:46:01;12.00;99.90
7399;DHT22;3740;50.700;7.184;2022-11-12T17:48:29;11.90;99.90
7399;DHT22;3740;50.700;7.184;2022-11-12T17:51:10;11.80;99.90
7399;DHT22;3740;50.700;7.184;2022-11-12T17:53:37;11.80;99.90
7399;DHT22;3740;50.700;7.184;2022-11-12T17:56:05;11.80;99.90
7399;DHT22;3740;50.700;7.184;2022-11-12T17:58:31;11.80;99.90
7399;DHT22;3740;50.700;7.184;2022-11-12T18:01:05;11.80;99.90
7399;DHT22;3740;50.700;7.184;2022-11-12T18:03:31;11.70;99.90
7399;DHT22;3740;50.700;7.184;2022-11-12T18:05:58;11.60;99.90
7399;DHT22;3740;50.700;7.184;2022-11-12T18:08:24;11.60;99.90
7399;DHT22;3740;50.700;7.184;2022-11-12T18:10:50;11.60;99.90
7399;DHT22;3740;50.700;7.184;2022-11-12T18:13:17;11.60;99.90
7399;DHT22;3740;50.700;7.184;2022-11-12T18:15:43;11.60;99.90
7399;DHT22;3740;50.700;7.184;2022-11-12T18:18:09;11.50;99.90
7399;DHT22;3740;50.700;7.184;2022-11-12T18:20:34;11.40;99.90
7399;DHT22;3740;50.700;7.184;2022-11-12T18:23:04;11.40;99.90